Terminal Aerodrome Forecast
Issued by NWS

Home | Current Version | Previous Version | Text Only | Print | Product List | Glossary On
Versions: 1 2 3 4 5 6 7 8 9 10 11 12 13 14 15 16 17 18 19 20 21 22 23 24
000
FTUS41 KCAR 200158 AAA
TAFFVE
TAF AMD
KFVE 200158Z 2002/2024 16005KT P6SM VCSH BKN007
     FM200600 20006KT 2SM BR VCSH OVC001
     FM201000 22005KT P6SM VCSH OVC008
     FM201400 30008KT P6SM VCSH BKN040=

USA.gov is the U.S. government's official web portal to all federal, state and local government web resources and services.